Time;durP1;ratioP1;P1;durP2;ratioP2;P2;SDS_P1;SDS_P2;PMS_P1;PMS_P2;Temp;Humidity;BMP_temperature;BMP_pressure;BME280_temperature;BME280_humidity;BME280_pressure;Samples;Min_cycle;Max_cycle;Signal;HPM_P1;HPM_P2
2023/01/24 00:00:32;;;;;;;24.17;18.85;;;3.20;99.90;;;;;;5047289;28;20044;-64
2023/01/24 00:02:57;;;;;;;22.33;17.75;;;3.10;99.90;;;;;;5046344;28;20052;-64
2023/01/24 00:05:23;;;;;;;24.25;18.77;;;3.10;99.90;;;;;;5030643;28;20064;-65
2023/01/24 00:07:49;;;;;;;24.30;18.92;;;3.20;99.90;;;;;;5049315;28;20029;-64
2023/01/24 00:10:15;;;;;;;25.13;19.63;;;3.10;99.90;;;;;;5050058;28;20029;-65
2023/01/24 00:12:41;;;;;;;22.20;17.80;;;3.10;99.90;;;;;;5049720;28;20052;-64
2023/01/24 00:15:08;;;;;;;26.80;18.80;;;3.10;99.90;;;;;;5047315;28;20508;-64
2023/01/24 00:17:33;;;;;;;25.70;20.05;;;3.20;99.90;;;;;;5049015;28;20129;-64
2023/01/24 00:19:59;;;;;;;25.23;18.98;;;3.10;99.90;;;;;;5031167;28;20059;-64
2023/01/24 00:22:25;;;;;;;23.95;18.75;;;3.10;99.90;;;;;;5044653;28;20076;-64
2023/01/24 00:24:51;;;;;;;24.23;17.52;;;3.10;99.90;;;;;;5047514;28;20190;-64
2023/01/24 00:27:17;;;;;;;25.02;19.42;;;3.10;99.90;;;;;;5051534;28;20036;-65
2023/01/24 00:29:43;;;;;;;22.77;18.40;;;3.10;99.90;;;;;;5052385;28;20179;-64
2023/01/24 00:32:09;;;;;;;21.85;18.45;;;3.10;99.90;;;;;;5053240;28;20170;-64
2023/01/24 00:34:35;;;;;;;22.52;18.25;;;3.10;99.90;;;;;;5051536;28;20512;-64
2023/01/24 00:37:00;;;;;;;24.17;19.40;;;3.10;99.90;;;;;;5053791;28;20037;-64
2023/01/24 00:39:26;;;;;;;26.70;20.02;;;3.10;99.90;;;;;;5052897;28;20036;-65
2023/01/24 00:41:52;;;;;;;24.15;19.00;;;3.10;99.90;;;;;;5053954;28;20378;-64
2023/01/24 00:44:17;;;;;;;26.65;19.05;;;3.10;99.90;;;;;;5052065;28;20423;-64
2023/01/24 00:46:43;;;;;;;25.30;19.55;;;3.10;99.90;;;;;;5053455;28;20124;-64
2023/01/24 00:49:09;;;;;;;24.65;19.80;;;3.10;99.90;;;;;;5051092;28;20090;-64
2023/01/24 00:51:35;;;;;;;25.48;19.65;;;3.10;99.90;;;;;;5052432;28;20044;-64
2023/01/24 00:54:01;;;;;;;24.83;18.77;;;3.10;99.90;;;;;;5051188;28;20044;-64
2023/01/24 00:56:27;;;;;;;22.35;18.48;;;3.00;99.90;;;;;;5035011;28;20025;-64
2023/01/24 00:58:53;;;;;;;26.02;19.27;;;3.00;99.90;;;;;;5051162;28;20369;-64
2023/01/24 01:01:19;;;;;;;27.17;19.23;;;3.00;99.90;;;;;;5051736;28;20683;-65
2023/01/24 01:03:44;;;;;;;24.17;18.52;;;3.00;99.90;;;;;;5049725;28;20033;-65
2023/01/24 01:06:14;;;;;;;26.45;19.42;;;3.00;99.90;;;;;;5052447;28;20033;-65
2023/01/24 01:08:40;;;;;;;23.48;19.38;;;3.00;99.90;;;;;;5052465;28;20037;-64
2023/01/24 01:11:07;;;;;;;21.10;17.40;;;3.00;99.90;;;;;;5052075;28;20029;-64
2023/01/24 01:13:33;;;;;;;25.83;19.58;;;3.00;99.90;;;;;;5034025;28;20148;-64
2023/01/24 01:16:04;;;;;;;26.63;19.67;;;3.00;99.90;;;;;;5034765;28;20148;-64
2023/01/24 01:18:30;;;;;;;27.70;19.30;;;3.00;99.90;;;;;;5052609;28;20428;-64
2023/01/24 01:20:56;;;;;;;25.48;19.73;;;3.00;99.90;;;;;;5050079;28;20037;-64
2023/01/24 01:23:21;;;;;;;26.42;19.48;;;3.00;99.90;;;;;;5030324;28;20049;-65
2023/01/24 01:25:47;;;;;;;22.88;18.45;;;3.00;99.90;;;;;;5051370;28;20036;-64
2023/01/24 01:28:13;;;;;;;23.92;19.48;;;3.00;99.90;;;;;;5052037;28;20045;-65
2023/01/24 01:30:39;;;;;;;26.15;19.55;;;3.00;99.90;;;;;;5052772;28;20124;-64
2023/01/24 01:33:04;;;;;;;24.42;18.98;;;3.10;99.90;;;;;;5052538;28;20073;-64
2023/01/24 01:35:30;;;;;;;24.63;18.70;;;3.00;99.90;;;;;;5050430;28;20197;-64
2023/01/24 01:37:56;;;;;;;25.15;19.38;;;3.00;99.90;;;;;;5050269;28;20430;-64
2023/01/24 01:40:21;;;;;;;24.95;19.40;;;3.00;99.90;;;;;;5033477;28;20064;-64
2023/01/24 01:42:47;;;;;;;25.15;19.50;;;3.00;99.90;;;;;;5050511;28;20392;-64
2023/01/24 01:45:37;;;;;;;26.13;19.85;;;3.00;99.90;;;;;;5049880;28;20037;-64
2023/01/24 01:48:33;;;;;;;25.15;19.67;;;3.00;99.90;;;;;;5052318;28;20346;-64
2023/01/24 01:51:05;;;;;;;24.00;18.92;;;3.00;99.90;;;;;;5051050;28;20041;-64
2023/01/24 01:53:37;;;;;;;24.15;18.92;;;3.10;99.90;;;;;;5048651;28;20041;-65
2023/01/24 01:56:15;;;;;;;27.35;19.77;;;3.10;99.90;;;;;;5049461;28;20052;-64
2023/01/24 01:58:41;;;;;;;22.08;17.55;;;3.10;99.90;;;;;;5052027;28;20041;-64
2023/01/24 02:01:07;;;;;;;23.75;18.50;;;3.10;99.90;;;;;;5050936;28;20044;-65
2023/01/24 02:03:40;;;;;;;23.95;19.00;;;3.10;99.90;;;;;;5051512;28;20632;-64
2023/01/24 02:06:36;;;;;;;27.42;18.45;;;3.10;99.90;;;;;;5049942;28;20039;-64
2023/01/24 02:09:04;;;;;;;24.17;18.77;;;3.10;99.90;;;;;;5050028;28;20191;-64
2023/01/24 02:11:39;;;;;;;22.92;17.80;;;3.10;99.90;;;;;;5051607;28;20389;-64
2023/01/24 02:16:53;;;;;;;20.90;17.38;;;3.10;99.90;;;;;;5051349;28;20598;-64
2023/01/24 02:19:43;;;;;;;23.10;17.98;;;3.10;99.90;;;;;;5032459;28;20044;-64
2023/01/24 02:22:23;;;;;;;21.50;17.08;;;3.10;99.90;;;;;;5050979;28;20559;-64
2023/01/24 02:25:02;;;;;;;21.08;16.42;;;3.10;99.90;;;;;;5048016;28;20049;-64
2023/01/24 02:27:28;;;;;;;23.25;18.42;;;3.10;99.90;;;;;;5051287;28;20473;-65
2023/01/24 02:29:56;;;;;;;24.42;18.88;;;3.10;99.90;;;;;;5051075;28;20041;-64
2023/01/24 02:32:22;;;;;;;24.35;18.20;;;3.10;99.90;;;;;;5033383;28;20148;-65
2023/01/24 02:34:47;;;;;;;21.48;16.88;;;3.10;99.90;;;;;;5049145;28;20044;-64
2023/01/24 02:37:14;;;;;;;23.50;18.55;;;3.10;99.90;;;;;;5048670;28;20450;-65
2023/01/24 02:40:02;;;;;;;24.48;18.08;;;3.10;99.90;;;;;;5050648;28;20531;-64
2023/01/24 02:42:38;;;;;;;23.08;17.83;;;3.10;99.90;;;;;;5049895;28;20036;-65
2023/01/24 02:45:26;;;;;;;20.65;15.68;;;3.00;99.90;;;;;;5043656;28;20041;-64
2023/01/24 02:47:54;;;;;;;19.67;14.45;;;3.10;99.90;;;;;;5033344;28;20037;-64
2023/01/24 02:50:22;;;;;;;18.35;14.82;;;3.00;99.90;;;;;;5048927;28;20044;-64
2023/01/24 02:55:33;;;;;;;17.77;14.80;;;3.10;99.90;;;;;;5049744;28;20052;-64
2023/01/24 02:58:05;;;;;;;19.90;13.98;;;3.10;99.90;;;;;;5048156;28;20782;-64
2023/01/24 03:00:40;;;;;;;20.50;15.55;;;3.10;99.90;;;;;;5050518;28;20037;-64
2023/01/24 03:03:07;;;;;;;20.13;15.40;;;3.10;99.90;;;;;;5050533;28;20045;-65
2023/01/24 03:05:56;;;;;;;20.02;15.85;;;3.10;99.90;;;;;;5049539;28;20032;-64
2023/01/24 03:08:26;;;;;;;19.92;15.73;;;3.10;99.90;;;;;;5049994;28;20488;-64
2023/01/24 03:10:53;;;;;;;20.98;16.65;;;3.10;99.90;;;;;;5050536;28;20542;-64
2023/01/24 03:35:15;;;;;;;23.83;16.60;;;3.00;99.90;;;;;;5047830;28;20051;-64
2023/01/24 03:40:25;;;;;;;18.33;14.90;;;3.00;99.90;;;;;;5049067;28;20044;-64
2023/01/24 03:42:51;;;;;;;19.13;16.00;;;3.00;99.90;;;;;;5049371;28;20045;-64
2023/01/24 03:45:19;;;;;;;19.17;15.40;;;3.00;99.90;;;;;;5047469;28;20112;-64
2023/01/24 03:47:56;;;;;;;20.10;15.98;;;3.00;99.90;;;;;;5049319;28;20044;-65
2023/01/24 03:53:17;;;;;;;20.42;15.65;;;3.00;99.90;;;;;;5048575;28;20120;-64
2023/01/24 03:55:43;;;;;;;18.60;15.55;;;3.00;99.90;;;;;;5049276;28;20061;-64
2023/01/24 03:58:10;;;;;;;19.65;14.57;;;3.00;99.90;;;;;;5046896;28;20091;-64
2023/01/24 04:00:36;;;;;;;19.90;14.75;;;3.00;99.90;;;;;;5049489;28;20041;-64
2023/01/24 04:03:03;;;;;;;20.40;16.33;;;3.00;99.90;;;;;;5050535;28;20041;-64
2023/01/24 04:05:28;;;;;;;17.42;14.68;;;3.00;99.90;;;;;;5051343;28;20038;-64
2023/01/24 04:07:55;;;;;;;20.48;15.45;;;3.00;99.90;;;;;;5051045;28;20037;-65
2023/01/24 04:10:22;;;;;;;19.40;14.80;;;3.00;99.90;;;;;;5052368;28;20037;-64
2023/01/24 04:12:48;;;;;;;18.63;15.20;;;3.00;99.90;;;;;;5054331;28;20117;-64
2023/01/24 04:15:19;;;;;;;19.52;15.48;;;3.00;99.90;;;;;;5053004;28;20037;-64
2023/01/24 04:17:45;;;;;;;21.92;15.55;;;3.00;99.90;;;;;;5054144;28;20109;-64
2023/01/24 04:20:12;;;;;;;18.65;14.63;;;3.00;99.90;;;;;;5053179;28;20029;-64
2023/01/24 04:22:38;;;;;;;19.33;15.75;;;3.00;99.90;;;;;;5052839;28;20045;-64
2023/01/24 04:25:04;;;;;;;18.83;15.55;;;3.00;99.90;;;;;;5048792;28;20396;-64
2023/01/24 04:27:29;;;;;;;20.13;16.00;;;3.00;99.90;;;;;;5053747;28;20068;-64
2023/01/24 04:29:55;;;;;;;18.88;16.00;;;3.00;99.90;;;;;;5053129;28;20128;-64
2023/01/24 04:32:21;;;;;;;19.65;16.50;;;3.00;99.90;;;;;;5053802;28;20043;-64
2023/01/24 04:34:46;;;;;;;18.60;14.32;;;3.00;99.90;;;;;;5032927;28;20044;-64
2023/01/24 04:37:12;;;;;;;18.02;14.68;;;3.00;99.90;;;;;;5052573;28;20124;-64
2023/01/24 04:39:38;;;;;;;18.55;14.02;;;2.90;99.90;;;;;;5015266;28;20079;-65
2023/01/24 04:42:05;;;;;;;16.77;13.48;;;2.90;99.90;;;;;;5046871;28;20051;-65
2023/01/24 04:44:32;;;;;;;18.00;13.75;;;3.00;99.90;;;;;;5048542;28;20041;-64
2023/01/24 04:46:57;;;;;;;16.75;12.55;;;3.00;99.90;;;;;;5051839;28;20059;-64
2023/01/24 04:49:23;;;;;;;16.52;13.00;;;2.90;99.90;;;;;;5051272;28;20040;-64
2023/01/24 04:51:52;;;;;;;16.55;13.18;;;2.90;99.90;;;;;;5053083;28;20107;-65
2023/01/24 04:54:18;;;;;;;18.58;13.05;;;3.00;99.90;;;;;;5052186;28;20044;-65
2023/01/24 04:56:44;;;;;;;15.23;11.82;;;2.90;99.90;;;;;;5051454;28;20029;-65
2023/01/24 04:59:13;;;;;;;14.32;10.80;;;2.90;99.90;;;;;;5032183;28;20103;-64
2023/01/24 05:01:39;;;;;;;16.35;11.65;;;2.90;99.90;;;;;;5033132;28;20167;-64
2023/01/24 05:04:05;;;;;;;14.82;12.05;;;2.90;99.90;;;;;;5047658;28;20045;-64
2023/01/24 05:06:32;;;;;;;12.80;10.55;;;2.90;99.90;;;;;;5031712;28;20065;-64
2023/01/24 05:08:58;;;;;;;14.65;11.98;;;2.90;99.90;;;;;;5041378;28;20044;-64
2023/01/24 05:11:24;;;;;;;15.02;11.85;;;3.00;99.90;;;;;;5025251;28;20041;-64
2023/01/24 05:13:50;;;;;;;15.48;11.52;;;3.00;99.90;;;;;;5051250;28;20124;-64
2023/01/24 05:16:16;;;;;;;16.90;12.55;;;2.90;99.90;;;;;;5052507;28;20102;-64
2023/01/24 05:18:42;;;;;;;14.10;12.23;;;2.90;99.90;;;;;;5049031;28;20044;-64
2023/01/24 05:21:16;;;;;;;16.85;12.60;;;2.90;99.90;;;;;;5050855;28;20503;-64
2023/01/24 05:23:47;;;;;;;14.57;11.93;;;2.90;99.90;;;;;;5050861;28;20061;-65
2023/01/24 05:26:12;;;;;;;14.23;11.25;;;2.90;99.90;;;;;;5051353;28;20044;-64
2023/01/24 05:28:38;;;;;;;15.40;11.85;;;2.90;99.90;;;;;;5046713;28;20045;-64
2023/01/24 05:31:08;;;;;;;14.57;11.35;;;2.90;99.90;;;;;;5052191;28;20039;-64
2023/01/24 05:33:35;;;;;;;14.88;11.32;;;2.90;99.90;;;;;;5049364;28;20059;-64
2023/01/24 05:36:04;;;;;;;14.25;10.70;;;2.90;99.90;;;;;;5048631;28;20098;-64
2023/01/24 05:38:30;;;;;;;13.40;11.07;;;2.90;99.90;;;;;;5049770;28;20041;-64
2023/01/24 05:41:03;;;;;;;13.05;10.68;;;2.90;99.90;;;;;;5051005;28;20029;-64
2023/01/24 05:43:29;;;;;;;15.55;11.05;;;2.80;99.90;;;;;;5050513;28;20048;-64
2023/01/24 05:45:59;;;;;;;12.68;10.20;;;2.90;99.90;;;;;;5047198;28;20028;-65
2023/01/24 05:48:25;;;;;;;13.60;10.77;;;2.90;99.90;;;;;;5050041;28;20044;-64
2023/01/24 05:50:59;;;;;;;12.18;10.57;;;2.90;99.90;;;;;;5049880;28;20491;-64
2023/01/24 05:53:26;;;;;;;13.30;10.32;;;2.80;99.90;;;;;;5048008;28;20098;-65
2023/01/24 05:56:00;;;;;;;13.30;10.30;;;2.80;99.90;;;;;;5049216;28;20514;-65
2023/01/24 05:58:27;;;;;;;12.77;9.95;;;2.80;99.90;;;;;;5049915;28;20071;-64
2023/01/24 06:00:53;;;;;;;12.98;9.65;;;2.80;99.90;;;;;;5050284;28;20507;-65
2023/01/24 06:03:19;;;;;;;12.10;9.68;;;2.80;99.90;;;;;;5051241;28;20045;-64
2023/01/24 06:05:51;;;;;;;13.15;9.88;;;2.80;99.90;;;;;;5051711;28;20037;-64
2023/01/24 06:08:17;;;;;;;13.57;10.15;;;2.80;99.90;;;;;;5051388;28;20048;-64
2023/01/24 06:10:43;;;;;;;14.90;9.80;;;2.80;99.90;;;;;;5050287;28;20032;-64
2023/01/24 06:13:09;;;;;;;12.57;9.95;;;2.80;99.90;;;;;;5051782;28;20068;-64
2023/01/24 06:15:36;;;;;;;11.77;9.88;;;2.70;99.90;;;;;;5049104;28;20047;-64
2023/01/24 06:18:02;;;;;;;13.93;10.57;;;2.70;99.90;;;;;;5052149;28;20048;-64
2023/01/24 06:20:28;;;;;;;13.48;9.40;;;2.70;99.90;;;;;;5050813;28;20045;-64
2023/01/24 06:22:58;;;;;;;11.60;9.77;;;2.70;99.90;;;;;;5050510;28;20057;-64
2023/01/24 06:25:26;;;;;;;11.75;9.23;;;2.70;99.90;;;;;;5032737;28;20044;-63
2023/01/24 06:27:52;;;;;;;13.57;9.98;;;2.70;99.90;;;;;;5048685;28;20048;-64
2023/01/24 06:30:19;;;;;;;11.82;10.10;;;2.70;99.90;;;;;;5050454;28;20029;-63
2023/01/24 06:32:47;;;;;;;12.98;10.10;;;2.70;99.90;;;;;;5051451;28;20076;-64
2023/01/24 06:35:28;;;;;;;13.60;10.77;;;2.70;99.90;;;;;;5050740;28;20045;-64
2023/01/24 06:37:54;;;;;;;13.65;9.95;;;2.70;99.90;;;;;;5048456;28;20041;-64
2023/01/24 06:40:24;;;;;;;12.48;10.32;;;2.70;99.90;;;;;;5049355;28;20037;-64
2023/01/24 06:42:51;;;;;;;15.80;11.23;;;2.70;99.90;;;;;;5050784;28;20049;-64
2023/01/24 06:45:17;;;;;;;15.02;11.05;;;2.70;99.90;;;;;;5050844;28;20036;-65
2023/01/24 06:47:43;;;;;;;12.77;10.88;;;2.70;99.90;;;;;;5049163;28;20041;-65
2023/01/24 06:50:19;;;;;;;13.95;10.82;;;2.70;99.90;;;;;;5047123;28;20036;-65
2023/01/24 06:52:46;;;;;;;13.00;10.90;;;2.70;99.90;;;;;;5031107;28;20048;-65
2023/01/24 06:55:12;;;;;;;12.23;10.10;;;2.70;99.90;;;;;;5048296;28;20044;-64
2023/01/24 06:57:38;;;;;;;14.27;11.00;;;2.70;99.90;;;;;;5030180;28;20102;-64
2023/01/24 07:00:05;;;;;;;14.98;11.23;;;2.70;99.90;;;;;;5048178;28;20048;-64
2023/01/24 07:02:31;;;;;;;14.07;10.77;;;2.60;99.90;;;;;;5046468;28;20493;-64
2023/01/24 07:04:56;;;;;;;11.60;10.23;;;2.60;99.90;;;;;;5045675;28;20044;-64
2023/01/24 07:07:22;;;;;;;12.45;10.18;;;2.60;99.90;;;;;;5048023;28;20532;-64
2023/01/24 07:09:48;;;;;;;15.20;10.77;;;2.60;99.90;;;;;;5048541;28;20214;-64
2023/01/24 07:12:13;;;;;;;13.70;10.57;;;2.60;99.90;;;;;;5048800;28;20037;-64
2023/01/24 07:14:39;;;;;;;14.70;11.18;;;2.60;99.90;;;;;;5050101;28;20102;-65
2023/01/24 07:17:05;;;;;;;15.10;11.30;;;2.60;99.90;;;;;;5030110;28;20094;-65
2023/01/24 07:19:31;;;;;;;13.82;11.23;;;2.60;99.90;;;;;;5049471;28;20115;-65
2023/01/24 07:21:58;;;;;;;14.75;11.02;;;2.60;99.90;;;;;;5049654;28;20040;-65
2023/01/24 07:24:29;;;;;;;13.73;11.07;;;2.60;99.90;;;;;;5049674;28;20147;-65
2023/01/24 07:26:55;;;;;;;15.77;11.57;;;2.60;99.90;;;;;;5046884;28;20036;-65
2023/01/24 07:29:22;;;;;;;15.02;11.73;;;2.60;99.90;;;;;;5049304;28;20033;-65
2023/01/24 07:31:48;;;;;;;17.83;11.27;;;2.60;99.90;;;;;;5048052;28;20421;-65
2023/01/24 07:34:17;;;;;;;16.65;12.00;;;2.60;99.90;;;;;;5050065;28;20045;-65
2023/01/24 07:36:44;;;;;;;14.75;10.98;;;2.70;99.90;;;;;;5048995;28;20040;-65
2023/01/24 07:39:10;;;;;;;14.10;11.18;;;2.60;99.90;;;;;;5049112;28;20037;-65
2023/01/24 07:41:36;;;;;;;13.50;11.57;;;2.60;99.90;;;;;;5049975;28;20051;-65
2023/01/24 07:44:04;;;;;;;14.88;11.13;;;2.60;99.90;;;;;;5050146;28;20044;-65
2023/01/24 07:46:34;;;;;;;15.23;11.63;;;2.60;99.90;;;;;;5031498;28;20079;-65
2023/01/24 07:49:01;;;;;;;12.90;10.25;;;2.60;99.90;;;;;;5048113;28;20052;-65
2023/01/24 07:51:26;;;;;;;14.98;12.00;;;2.60;99.90;;;;;;5049202;28;20487;-65
2023/01/24 07:53:52;;;;;;;17.50;12.43;;;2.60;99.90;;;;;;5046803;28;20072;-64
2023/01/24 07:56:18;;;;;;;18.00;12.07;;;2.60;99.90;;;;;;5049740;28;20044;-64
2023/01/24 07:58:43;;;;;;;14.43;11.73;;;2.60;99.90;;;;;;5049326;28;20033;-64
2023/01/24 08:01:14;;;;;;;13.52;10.40;;;2.70;99.90;;;;;;5049586;28;20043;-64
2023/01/24 08:03:40;;;;;;;15.43;11.60;;;2.60;99.90;;;;;;5047758;28;20079;-64
2023/01/24 08:06:06;;;;;;;15.43;11.40;;;2.60;99.90;;;;;;5049278;28;20036;-63
2023/01/24 08:08:32;;;;;;;15.55;11.82;;;2.60;99.90;;;;;;5049298;28;20059;-64
2023/01/24 08:10:57;;;;;;;15.15;11.70;;;2.70;99.90;;;;;;5048808;28;20033;-64
2023/01/24 08:13:23;;;;;;;14.80;11.57;;;2.60;99.90;;;;;;5048980;28;20095;-64
2023/01/24 08:15:49;;;;;;;15.18;11.80;;;2.60;99.90;;;;;;5049564;28;20044;-64
2023/01/24 08:18:14;;;;;;;12.70;10.18;;;2.70;99.90;;;;;;5031483;28;20071;-64
2023/01/24 08:20:40;;;;;;;13.50;11.23;;;2.60;99.90;;;;;;5048796;28;20041;-64
2023/01/24 08:23:06;;;;;;;12.68;10.77;;;2.60;99.90;;;;;;5048918;28;20578;-64
2023/01/24 08:25:33;;;;;;;12.93;10.50;;;2.60;99.90;;;;;;5029394;28;20049;-64
2023/01/24 08:27:59;;;;;;;15.02;11.57;;;2.60;99.90;;;;;;5030277;28;20056;-64
2023/01/24 08:30:25;;;;;;;14.52;11.95;;;2.60;99.90;;;;;;5049769;28;20037;-64
2023/01/24 08:33:05;;;;;;;16.35;11.45;;;2.60;99.90;;;;;;5031479;28;20139;-65
2023/01/24 08:35:31;;;;;;;14.55;10.55;;;2.60;99.90;;;;;;5048555;28;20524;-64
2023/01/24 08:37:57;;;;;;;13.40;10.85;;;2.60;99.90;;;;;;5046842;28;20489;-63
2023/01/24 08:40:23;;;;;;;13.15;10.98;;;2.60;99.90;;;;;;5049280;28;20102;-64
2023/01/24 08:42:49;;;;;;;16.30;11.13;;;2.70;99.90;;;;;;5049006;28;20037;-64
2023/01/24 08:45:15;;;;;;;14.38;10.43;;;2.60;99.90;;;;;;5030898;28;20407;-64
2023/01/24 08:47:41;;;;;;;15.55;10.57;;;2.60;99.90;;;;;;5049875;28;20511;-64
2023/01/24 08:50:08;;;;;;;11.80;10.02;;;2.70;99.90;;;;;;5050032;28;20036;-63
2023/01/24 08:52:34;;;;;;;13.45;11.32;;;2.60;99.90;;;;;;5052069;28;20102;-64
2023/01/24 08:55:00;;;;;;;15.02;11.40;;;2.60;99.90;;;;;;5036072;28;20036;-63
2023/01/24 08:57:25;;;;;;;15.32;11.68;;;2.60;99.90;;;;;;5051499;28;20122;-64
2023/01/24 08:59:51;;;;;;;15.50;10.85;;;2.60;99.90;;;;;;5051280;28;20044;-64
2023/01/24 09:02:17;;;;;;;13.95;11.07;;;2.60;99.90;;;;;;5034410;28;20045;-64
2023/01/24 09:04:43;;;;;;;13.52;11.30;;;2.60;99.90;;;;;;5033852;28;20112;-64
2023/01/24 09:07:10;;;;;;;13.13;10.63;;;2.60;99.90;;;;;;5034016;28;20048;-64
2023/01/24 09:09:36;;;;;;;13.68;11.05;;;2.60;99.90;;;;;;5050043;28;20049;-64
2023/01/24 09:12:02;;;;;;;14.30;10.65;;;2.60;99.90;;;;;;5052367;28;20112;-64
2023/01/24 09:14:28;;;;;;;14.02;11.20;;;2.60;99.90;;;;;;5052110;28;20044;-64
2023/01/24 09:16:54;;;;;;;14.20;11.25;;;2.60;99.90;;;;;;5051029;28;20033;-64
2023/01/24 09:19:19;;;;;;;15.30;11.40;;;2.70;99.90;;;;;;5033514;28;20124;-64
2023/01/24 09:21:50;;;;;;;12.63;10.52;;;2.60;99.90;;;;;;5051668;28;20303;-65
2023/01/24 09:24:16;;;;;;;13.15;10.85;;;2.70;99.90;;;;;;5050801;28;20049;-64
2023/01/24 09:26:44;;;;;;;13.77;11.07;;;2.60;99.90;;;;;;5052034;28;20037;-64
2023/01/24 09:29:09;;;;;;;12.00;10.75;;;2.60;99.90;;;;;;5052104;28;20156;-64
2023/01/24 09:31:36;;;;;;;13.32;10.98;;;2.60;99.90;;;;;;5051347;28;20489;-64
2023/01/24 09:34:01;;;;;;;14.27;11.52;;;2.60;99.90;;;;;;5032885;28;20383;-64
2023/01/24 09:36:29;;;;;;;15.60;11.50;;;2.60;99.90;;;;;;5051503;28;20162;-64
2023/01/24 09:38:56;;;;;;;13.48;10.70;;;2.70;99.90;;;;;;5033763;28;20052;-64
2023/01/24 09:41:44;;;;;;;12.65;9.80;;;2.70;99.90;;;;;;5051617;28;20096;-65
2023/01/24 09:44:19;;;;;;;14.50;11.50;;;2.70;99.90;;;;;;5052079;28;20552;-64
2023/01/24 09:46:50;;;;;;;12.50;10.68;;;2.60;99.90;;;;;;5048734;28;20037;-64
2023/01/24 09:49:47;;;;;;;12.70;10.75;;;2.70;99.90;;;;;;5051412;28;20064;-64
2023/01/24 09:52:25;;;;;;;12.82;10.35;;;2.70;99.90;;;;;;5033760;28;20047;-64
2023/01/24 09:54:56;;;;;;;13.70;10.93;;;2.70;99.90;;;;;;5051480;28;20086;-64
2023/01/24 09:57:43;;;;;;;13.52;11.27;;;2.70;99.90;;;;;;5050982;28;20048;-64
2023/01/24 10:00:26;;;;;;;13.88;11.15;;;2.70;99.90;;;;;;5049441;28;20076;-65
2023/01/24 10:02:55;;;;;;;13.00;10.45;;;2.70;99.90;;;;;;5046788;28;21446;-64
2023/01/24 10:05:24;;;;;;;14.88;11.43;;;2.70;99.90;;;;;;5046568;28;20116;-64
2023/01/24 10:07:50;;;;;;;13.93;11.60;;;2.70;99.90;;;;;;5047535;28;20076;-64
2023/01/24 10:10:26;;;;;;;13.45;11.38;;;2.70;99.90;;;;;;5051647;28;20160;-64
2023/01/24 10:13:13;;;;;;;12.07;10.45;;;2.70;99.90;;;;;;5033539;28;20041;-64
2023/01/24 10:15:46;;;;;;;13.23;11.23;;;2.70;99.90;;;;;;5048763;28;20051;-64
2023/01/24 10:18:45;;;;;;;14.30;11.55;;;2.70;99.90;;;;;;5051989;28;20037;-64
2023/01/24 10:21:35;;;;;;;12.13;10.65;;;2.70;99.90;;;;;;5050381;28;20047;-64
2023/01/24 10:24:06;;;;;;;14.45;11.60;;;2.70;99.90;;;;;;5046612;28;20045;-64
2023/01/24 10:26:35;;;;;;;12.93;11.38;;;2.70;99.90;;;;;;5051265;28;20050;-64
2023/01/24 10:29:13;;;;;;;12.05;10.48;;;2.80;99.90;;;;;;5050382;28;20040;-64
2023/01/24 10:31:56;;;;;;;14.15;11.00;;;2.80;99.90;;;;;;5051383;28;20033;-64
2023/01/24 10:34:28;;;;;;;13.00;10.52;;;2.80;99.90;;;;;;5051313;28;20052;-63
2023/01/24 10:37:09;;;;;;;14.85;11.15;;;2.80;99.90;;;;;;5052090;28;20067;-64
2023/01/24 10:39:38;;;;;;;13.93;11.27;;;2.90;99.90;;;;;;5050230;28;20084;-64
2023/01/24 10:42:30;;;;;;;14.30;11.57;;;2.90;99.90;;;;;;5051219;28;20140;-64
2023/01/24 10:45:20;;;;;;;14.07;11.35;;;2.90;99.90;;;;;;5032208;28;20033;-64
2023/01/24 10:48:16;;;;;;;13.10;11.60;;;2.90;99.90;;;;;;5040094;28;20478;-63
2023/01/24 10:50:44;;;;;;;12.95;11.43;;;2.90;99.90;;;;;;5050826;28;20041;-63
2023/01/24 10:53:26;;;;;;;13.02;11.05;;;2.90;99.90;;;;;;5050472;28;20095;-63
2023/01/24 10:56:04;;;;;;;12.10;10.40;;;3.00;99.90;;;;;;5050879;28;20045;-64
2023/01/24 10:58:40;;;;;;;13.23;11.27;;;2.90;99.90;;;;;;5050507;28;20076;-64
2023/01/24 11:01:19;;;;;;;14.32;11.48;;;2.90;99.90;;;;;;5050996;28;20036;-64
2023/01/24 11:03:47;;;;;;;13.00;10.73;;;2.90;99.90;;;;;;5050519;28;20041;-64
2023/01/24 11:06:24;;;;;;;12.52;10.90;;;2.90;99.90;;;;;;5051495;28;20119;-64
2023/01/24 11:08:55;;;;;;;13.38;11.48;;;2.90;99.90;;;;;;5048287;28;20036;-64
2023/01/24 11:11:31;;;;;;;13.70;11.43;;;2.80;99.90;;;;;;5049012;28;20044;-64
2023/01/24 11:14:00;;;;;;;13.27;10.90;;;2.90;99.90;;;;;;5049523;28;20124;-63
2023/01/24 11:16:43;;;;;;;14.30;12.50;;;2.80;99.90;;;;;;5050609;28;20048;-64
2023/01/24 11:19:31;;;;;;;12.68;11.00;;;2.90;99.90;;;;;;5050238;28;20144;-64
2023/01/24 11:22:00;;;;;;;13.98;11.07;;;2.80;99.90;;;;;;5051031;28;20591;-64
2023/01/24 11:24:27;;;;;;;13.70;11.77;;;2.80;99.90;;;;;;5049758;28;20135;-64
2023/01/24 11:26:54;;;;;;;15.25;11.30;;;2.80;99.90;;;;;;5050844;28;20097;-64
2023/01/24 11:29:20;;;;;;;14.95;12.13;;;2.90;99.90;;;;;;5050422;28;20477;-64
2023/01/24 11:31:53;;;;;;;15.00;12.32;;;2.80;99.90;;;;;;5051231;28;20052;-63
2023/01/24 11:34:44;;;;;;;12.70;10.82;;;2.80;99.90;;;;;;5049556;28;20044;-64
2023/01/24 11:37:35;;;;;;;14.27;12.05;;;2.80;99.90;;;;;;5050449;28;20040;-64
2023/01/24 11:40:28;;;;;;;14.18;11.45;;;2.80;99.90;;;;;;5048944;28;20056;-63
2023/01/24 11:43:19;;;;;;;12.00;10.23;;;2.80;99.90;;;;;;5024386;28;20108;-63
2023/01/24 11:46:14;;;;;;;12.98;10.85;;;2.80;99.90;;;;;;5031281;28;20621;-64
2023/01/24 11:49:17;;;;;;;13.98;11.02;;;2.80;99.90;;;;;;5048842;28;20052;-64
2023/01/24 11:51:52;;;;;;;12.25;10.45;;;2.80;99.90;;;;;;5050812;28;20124;-64
2023/01/24 11:54:23;;;;;;;;;;;2.70;99.90;;;;;;5049119;28;20049;-64
2023/01/24 11:56:49;;;;;;;12.77;10.75;;;2.70;99.90;;;;;;5032070;28;19917;-64
2023/01/24 11:59:41;;;;;;;12.57;11.20;;;2.70;99.90;;;;;;5050091;28;20516;-63
2023/01/24 12:02:31;;;;;;;14.25;11.90;;;2.80;99.90;;;;;;5031630;28;20069;-63
2023/01/24 12:05:16;;;;;;;14.57;11.93;;;2.80;99.90;;;;;;5048817;28;20033;-63
2023/01/24 12:07:53;;;;;;;14.32;11.05;;;2.70;99.90;;;;;;5047009;28;20037;-64
2023/01/24 12:10:46;;;;;;;13.95;11.48;;;2.70;99.90;;;;;;5032144;28;20091;-63
2023/01/24 12:13:24;;;;;;;14.13;11.25;;;2.70;99.90;;;;;;5047727;28;20163;-63
2023/01/24 12:16:22;;;;;;;15.60;11.57;;;2.70;99.90;;;;;;5049857;28;20053;-64
2023/01/24 12:19:22;;;;;;;14.25;11.52;;;2.70;99.90;;;;;;4978398;28;20084;-64
2023/01/24 12:21:51;;;;;;;14.10;11.93;;;2.70;99.90;;;;;;5048827;28;20044;-64
2023/01/24 12:24:27;;;;;;;15.52;13.13;;;2.70;99.90;;;;;;5052130;28;20519;-64
2023/01/24 12:27:00;;;;;;;15.23;11.63;;;2.80;99.90;;;;;;5053933;28;20156;-63
2023/01/24 12:29:38;;;;;;;14.20;11.93;;;2.80;99.90;;;;;;5053978;28;20052;-63
2023/01/24 12:32:25;;;;;;;13.73;11.60;;;2.70;99.90;;;;;;5052983;28;20029;-63
2023/01/24 12:35:19;;;;;;;13.18;11.77;;;2.80;99.90;;;;;;5050876;28;20040;-64
2023/01/24 12:37:45;;;;;;;14.20;12.10;;;2.70;99.90;;;;;;5051510;28;20040;-64
2023/01/24 12:40:11;;;;;;;14.45;12.13;;;2.70;99.90;;;;;;5033346;28;20033;-64
2023/01/24 12:43:09;;;;;;;15.13;12.10;;;2.70;99.90;;;;;;5051890;28;20392;-64
2023/01/24 12:46:24;;;;;;;14.05;11.88;;;2.70;99.90;;;;;;5051643;28;20124;-64
2023/01/24 12:49:09;;;;;;;14.40;12.73;;;2.70;99.90;;;;;;5030763;28;20171;-64
2023/01/24 12:51:55;;;;;;;15.25;12.52;;;2.70;99.90;;;;;;5050994;28;20041;-64
2023/01/24 12:54:39;;;;;;;14.98;12.98;;;2.70;99.90;;;;;;5049525;28;20094;-65
2023/01/24 12:57:30;;;;;;;15.15;12.50;;;2.70;99.90;;;;;;5052140;28;20048;-64
2023/01/24 12:59:56;;;;;;;16.92;12.48;;;2.70;99.90;;;;;;5048448;28;20029;-64
2023/01/24 13:02:44;;;;;;;15.65;12.50;;;2.60;99.90;;;;;;5051571;28;20519;-64
2023/01/24 13:05:22;;;;;;;14.75;12.15;;;2.60;99.90;;;;;;5051805;28;20091;-64
2023/01/24 13:08:07;;;;;;;15.50;12.32;;;2.70;99.90;;;;;;5033685;28;20123;-64
2023/01/24 13:11:01;;;;;;;14.65;12.35;;;2.60;99.90;;;;;;5052200;28;20110;-63
2023/01/24 13:13:39;;;;;;;14.05;11.77;;;2.60;99.90;;;;;;5052292;28;20116;-64
2023/01/24 13:16:27;;;;;;;16.00;12.02;;;2.60;99.90;;;;;;5050522;28;20079;-64
2023/01/24 13:19:01;;;;;;;15.02;12.48;;;2.60;99.90;;;;;;5051663;28;20079;-64
2023/01/24 13:21:48;;;;;;;13.98;12.23;;;2.60;99.90;;;;;;5051499;28;20049;-64
2023/01/24 13:24:39;;;;;;;14.77;12.38;;;2.60;99.90;;;;;;5050588;28;20400;-63
2023/01/24 13:27:36;;;;;;;15.52;12.20;;;2.50;99.90;;;;;;5034255;28;20037;-64
2023/01/24 13:30:16;;;;;;;14.02;12.02;;;2.60;99.90;;;;;;5015174;28;20064;-64
2023/01/24 13:32:42;;;;;;;15.55;12.52;;;2.60;99.90;;;;;;5052420;28;20792;-63